Brainerd Lakes Regional Airport Brainerd US
ICAO: KBRD
IATA: BRD
Category: Medium
Scheduled Services: Yes

Elevation: 1232 ft
TransAlt. 18000 ft.

Airport Communications:
ASOS:126.775
MINNEAPOLIS CNTR:118.05
PRINCETON RDO:123.65
CTAF/UNICOM:122.7

KBRD Zoom In..

Runways:

(A) RW 05 length 6512 ft width 150 ft
---- / hdg 51

(B) RW 16 length 7100 ft width 150 ft
---- / hdg 160

(C) RW 23 length 6512 ft width 150 ft
ILS 109.90 / hdg 231

(D) RW 34 length 7100 ft width 150 ft
ILS 109.70 / hdg 340

Location; KBRD
Day. 26 / Time. 12.53 Zulu
* Altimeter: 29.69
* Temperature: 22° c. 71.6°f.
* Wind from: VRB° Speed 04 kn.
Dewpoint: 14° c.
Visibility: 10 Statute Miles.
Clouds: Few 1000 ft.

KBRD 261253Z AUTO VRB04KT 10SM FEW100 22/14 A2969 RMK AO2 SLP046 T02170139


Wind From VRB°
Speed 04 kn.

 
 
jpsmedia.com for Web Design SOUNDCLOUD worldairports.se 2018   terms of use